Moline, IL (61265)

9:17 AM CDT on April 19, 2015 (GMT -0500)
east end of moline | | Change Station
CLOSE
Current Station
Personal Weather Station
Location: moline, il
Elevation: 712 ft
Nearby Weather Stations

Elev 712 ft 41.50 °N, 90.47 °W | Updated 20 seconds ago

Mostly Cloudy
Mostly Cloudy
60.1 °F
Feels Like 60.1 °F
N
3.5
Wind Variable Wind from SE
Gusts 3.5 mph

Today
High -- | Low -- °F
--% Chance of Precip.
Yesterday
High -- | Low -- °F
Precip. -- in
6:16 AM 7:46 PM
New Moon, 1% visible
Pressure 29.74 in
Visibility 10.0 miles
Clouds Mostly Cloudy 7500 ft
Dew Point 7 °F
Humidity 12%
Rainfall 0.00 in
Snow Depth Not available.
UV 2 out of 12
Pollen 3.30 out of 12
Air Quality Not available.
Flu Activity Regional
METAR KMLI 191352Z 09005KT 10SM BKN075 15/07 A2974

More Conditions Fewer Conditions

Pressure 29.74 in
Visibility 10.0 miles
Clouds Mostly Cloudy 7500 ft
Dew Point 7 °F
Humidity 12%
Rainfall 0.00 in
Snow Depth Not available.
UV 2 out of 12
Pollen 3.30 out of 12
Air Quality Not available.
Flu Activity Regional
METAR KMLI 191352Z 09005KT 10SM BKN075 15/07 A2974

More Conditions Fewer Conditions

10-Day Weather Forecast

Almanac

Astronomy

Apr. 19, 2015 Rise Set
Actual Time
Civil Twilight
Nautical Twilight
Astronomical Twilight
Moon
Length of Visible Light
Length of Day
Tomorrow will be .
, % of the Moon is Illuminated

Today's Extremes

State Highs State Lows

Community

WunderPhotos

Upload Photos

1,814,807 photos uploaded!

WunderBlogs® & News

Nearby

Air Quality

  Air Quality AQ Index Pollutant
Not available.

Snow Depth

Station Depth Elevation

Earthquake Activity

City Distance Mag. Time & Date
Minimum magnitude displayed is 2.5.

Coastal Water Temperatures

Place Temperature

Stations

Nearby Weather Stations

Station Location Temp. Windchill Dew Point Humidity Wind Precip. Elev Updated Type